sensor_id;sensor_type;location;lat;lon;timestamp;temperature;humidity
46652;DHT22;32377;52.182;5.398;2022-09-21T00:00:08;10.00;99.90
46652;DHT22;32377;52.182;5.398;2022-09-21T00:02:33;10.00;99.90
46652;DHT22;32377;52.182;5.398;2022-09-21T00:04:59;10.00;99.90
46652;DHT22;32377;52.182;5.398;2022-09-21T00:07:25;10.00;99.90
46652;DHT22;32377;52.182;5.398;2022-09-21T00:09:50;10.00;99.90
46652;DHT22;32377;52.182;5.398;2022-09-21T00:12:16;9.90;99.90
46652;DHT22;32377;52.182;5.398;2022-09-21T00:14:42;9.90;99.90
46652;DHT22;32377;52.182;5.398;2022-09-21T00:17:07;9.90;99.90
46652;DHT22;32377;52.182;5.398;2022-09-21T00:19:34;9.80;99.90
46652;DHT22;32377;52.182;5.398;2022-09-21T00:21:59;9.70;99.90
46652;DHT22;32377;52.182;5.398;2022-09-21T00:24:25;9.70;99.90
46652;DHT22;32377;52.182;5.398;2022-09-21T00:26:52;9.60;99.90
46652;DHT22;32377;52.182;5.398;2022-09-21T00:29:18;9.60;99.90
46652;DHT22;32377;52.182;5.398;2022-09-21T00:31:44;9.50;99.90
46652;DHT22;32377;52.182;5.398;2022-09-21T00:34:09;9.60;99.90
46652;DHT22;32377;52.182;5.398;2022-09-21T00:36:35;9.60;99.90
46652;DHT22;32377;52.182;5.398;2022-09-21T00:39:01;9.60;99.90
46652;DHT22;32377;52.182;5.398;2022-09-21T00:41:29;9.50;99.90
46652;DHT22;32377;52.182;5.398;2022-09-21T00:44:23;9.40;99.90
46652;DHT22;32377;52.182;5.398;2022-09-21T00:46:50;9.40;99.90
46652;DHT22;32377;52.182;5.398;2022-09-21T00:49:19;9.40;99.90
46652;DHT22;32377;52.182;5.398;2022-09-21T00:51:46;9.40;99.90
46652;DHT22;32377;52.182;5.398;2022-09-21T00:54:20;9.40;99.90
46652;DHT22;32377;52.182;5.398;2022-09-21T00:56:47;9.40;99.90
46652;DHT22;32377;52.182;5.398;2022-09-21T00:59:14;9.30;99.90
46652;DHT22;32377;52.182;5.398;2022-09-21T01:01:41;9.40;99.90
46652;DHT22;32377;52.182;5.398;2022-09-21T01:04:07;9.30;99.90
46652;DHT22;32377;52.182;5.398;2022-09-21T01:06:36;9.30;99.90
46652;DHT22;32377;52.182;5.398;2022-09-21T01:09:02;9.30;99.90
46652;DHT22;32377;52.182;5.398;2022-09-21T01:25:57;9.20;99.90
46652;DHT22;32377;52.182;5.398;2022-09-21T01:29:12;9.00;99.90
46652;DHT22;32377;52.182;5.398;2022-09-21T01:31:22;9.10;99.90
46652;DHT22;32377;52.182;5.398;2022-09-21T01:33:56;9.00;99.90
46652;DHT22;32377;52.182;5.398;2022-09-21T01:36:26;9.00;99.90
46652;DHT22;32377;52.182;5.398;2022-09-21T01:39:09;9.00;99.90
46652;DHT22;32377;52.182;5.398;2022-09-21T01:41:37;9.00;99.90
46652;DHT22;32377;52.182;5.398;2022-09-21T01:44:17;8.90;99.90
46652;DHT22;32377;52.182;5.398;2022-09-21T01:46:45;9.00;99.90
46652;DHT22;32377;52.182;5.398;2022-09-21T01:49:19;8.90;99.90
46652;DHT22;32377;52.182;5.398;2022-09-21T01:51:50;8.90;99.90
46652;DHT22;32377;52.182;5.398;2022-09-21T01:54:21;8.80;99.90
46652;DHT22;32377;52.182;5.398;2022-09-21T01:56:54;8.80;99.90
46652;DHT22;32377;52.182;5.398;2022-09-21T01:59:29;8.70;99.90
46652;DHT22;32377;52.182;5.398;2022-09-21T02:02:05;8.80;99.90
46652;DHT22;32377;52.182;5.398;2022-09-21T02:04:33;8.80;99.90
46652;DHT22;32377;52.182;5.398;2022-09-21T02:07:00;8.80;99.90
46652;DHT22;32377;52.182;5.398;2022-09-21T02:09:26;8.70;99.90
46652;DHT22;32377;52.182;5.398;2022-09-21T02:11:52;8.70;99.90
46652;DHT22;32377;52.182;5.398;2022-09-21T02:14:22;8.70;99.90
46652;DHT22;32377;52.182;5.398;2022-09-21T02:19:49;8.70;99.90
46652;DHT22;32377;52.182;5.398;2022-09-21T02:22:44;8.60;99.90
46652;DHT22;32377;52.182;5.398;2022-09-21T02:25:20;8.50;99.90
46652;DHT22;32377;52.182;5.398;2022-09-21T02:28:00;8.50;99.90
46652;DHT22;32377;52.182;5.398;2022-09-21T02:30:29;8.40;99.90
46652;DHT22;32377;52.182;5.398;2022-09-21T02:43:09;8.40;99.90
46652;DHT22;32377;52.182;5.398;2022-09-21T02:45:42;8.40;99.90
46652;DHT22;32377;52.182;5.398;2022-09-21T02:48:19;8.40;99.90
46652;DHT22;32377;52.182;5.398;2022-09-21T02:50:52;8.30;99.90
46652;DHT22;32377;52.182;5.398;2022-09-21T02:53:26;8.30;99.90
46652;DHT22;32377;52.182;5.398;2022-09-21T02:55:54;8.20;99.90
46652;DHT22;32377;52.182;5.398;2022-09-21T02:58:21;8.30;99.90
46652;DHT22;32377;52.182;5.398;2022-09-21T03:00:49;8.30;99.90
46652;DHT22;32377;52.182;5.398;2022-09-21T03:03:19;8.30;99.90
46652;DHT22;32377;52.182;5.398;2022-09-21T03:05:47;8.20;99.90
46652;DHT22;32377;52.182;5.398;2022-09-21T03:08:14;8.20;99.90
46652;DHT22;32377;52.182;5.398;2022-09-21T03:10:40;8.20;99.90
46652;DHT22;32377;52.182;5.398;2022-09-21T03:13:07;8.20;99.90
46652;DHT22;32377;52.182;5.398;2022-09-21T03:15:34;8.20;99.90
46652;DHT22;32377;52.182;5.398;2022-09-21T03:18:00;8.30;99.90
46652;DHT22;32377;52.182;5.398;2022-09-21T03:20:26;8.20;99.90
46652;DHT22;32377;52.182;5.398;2022-09-21T03:22:52;8.30;99.90
46652;DHT22;32377;52.182;5.398;2022-09-21T03:25:17;8.20;99.90
46652;DHT22;32377;52.182;5.398;2022-09-21T03:27:43;8.20;99.90
46652;DHT22;32377;52.182;5.398;2022-09-21T03:30:09;8.30;99.90
46652;DHT22;32377;52.182;5.398;2022-09-21T03:32:35;8.30;99.90
46652;DHT22;32377;52.182;5.398;2022-09-21T03:35:01;8.30;99.90
46652;DHT22;32377;52.182;5.398;2022-09-21T03:37:26;8.30;99.90
46652;DHT22;32377;52.182;5.398;2022-09-21T03:39:52;8.30;99.90
46652;DHT22;32377;52.182;5.398;2022-09-21T03:42:17;8.30;99.90
46652;DHT22;32377;52.182;5.398;2022-09-21T03:44:43;8.30;99.90
46652;DHT22;32377;52.182;5.398;2022-09-21T03:47:08;8.30;99.90
46652;DHT22;32377;52.182;5.398;2022-09-21T03:49:34;8.30;99.90
46652;DHT22;32377;52.182;5.398;2022-09-21T03:51:59;8.40;99.90
46652;DHT22;32377;52.182;5.398;2022-09-21T03:54:25;8.40;99.90
46652;DHT22;32377;52.182;5.398;2022-09-21T03:56:51;8.40;99.90
46652;DHT22;32377;52.182;5.398;2022-09-21T03:59:17;8.40;99.90
46652;DHT22;32377;52.182;5.398;2022-09-21T04:01:43;8.40;99.90
46652;DHT22;32377;52.182;5.398;2022-09-21T04:04:09;8.40;99.90
46652;DHT22;32377;52.182;5.398;2022-09-21T04:06:35;8.30;99.90
46652;DHT22;32377;52.182;5.398;2022-09-21T04:09:00;8.30;99.90
46652;DHT22;32377;52.182;5.398;2022-09-21T04:11:28;8.30;99.90
46652;DHT22;32377;52.182;5.398;2022-09-21T04:13:54;8.30;99.90
46652;DHT22;32377;52.182;5.398;2022-09-21T04:16:26;8.20;99.90
46652;DHT22;32377;52.182;5.398;2022-09-21T04:18:51;8.10;99.90
46652;DHT22;32377;52.182;5.398;2022-09-21T04:21:18;8.10;99.90
46652;DHT22;32377;52.182;5.398;2022-09-21T04:23:44;8.00;99.90
46652;DHT22;32377;52.182;5.398;2022-09-21T04:28:47;8.10;99.90
46652;DHT22;32377;52.182;5.398;2022-09-21T04:31:13;8.10;99.90
46652;DHT22;32377;52.182;5.398;2022-09-21T04:33:38;8.00;99.90
46652;DHT22;32377;52.182;5.398;2022-09-21T04:36:04;8.10;99.90
46652;DHT22;32377;52.182;5.398;2022-09-21T04:38:30;8.00;99.90
46652;DHT22;32377;52.182;5.398;2022-09-21T04:40:56;7.90;99.90
46652;DHT22;32377;52.182;5.398;2022-09-21T04:43:22;7.80;99.90
46652;DHT22;32377;52.182;5.398;2022-09-21T04:45:48;7.80;99.90
46652;DHT22;32377;52.182;5.398;2022-09-21T04:48:13;7.70;99.90
46652;DHT22;32377;52.182;5.398;2022-09-21T04:50:39;7.70;99.90
46652;DHT22;32377;52.182;5.398;2022-09-21T04:53:05;7.70;99.90
46652;DHT22;32377;52.182;5.398;2022-09-21T04:55:31;7.70;99.90
46652;DHT22;32377;52.182;5.398;2022-09-21T04:57:57;7.70;99.90
46652;DHT22;32377;52.182;5.398;2022-09-21T05:00:22;7.80;99.90
46652;DHT22;32377;52.182;5.398;2022-09-21T05:02:48;7.60;99.90
46652;DHT22;32377;52.182;5.398;2022-09-21T05:05:13;7.60;99.90
46652;DHT22;32377;52.182;5.398;2022-09-21T05:07:39;7.60;99.90
46652;DHT22;32377;52.182;5.398;2022-09-21T05:10:05;7.60;99.90
46652;DHT22;32377;52.182;5.398;2022-09-21T05:12:32;7.60;99.90
46652;DHT22;32377;52.182;5.398;2022-09-21T05:14:58;7.60;99.90
46652;DHT22;32377;52.182;5.398;2022-09-21T05:17:24;7.50;99.90
46652;DHT22;32377;52.182;5.398;2022-09-21T05:19:50;7.40;99.90
46652;DHT22;32377;52.182;5.398;2022-09-21T05:22:17;7.50;99.90
46652;DHT22;32377;52.182;5.398;2022-09-21T05:24:43;7.60;99.90
46652;DHT22;32377;52.182;5.398;2022-09-21T05:27:08;7.50;99.90
46652;DHT22;32377;52.182;5.398;2022-09-21T05:29:34;7.50;99.90
46652;DHT22;32377;52.182;5.398;2022-09-21T05:34:54;7.50;99.90
46652;DHT22;32377;52.182;5.398;2022-09-21T05:40:21;7.50;99.90
46652;DHT22;32377;52.182;5.398;2022-09-21T05:42:46;7.50;99.90
46652;DHT22;32377;52.182;5.398;2022-09-21T05:45:15;7.40;99.90
46652;DHT22;32377;52.182;5.398;2022-09-21T05:50:40;7.50;99.90
46652;DHT22;32377;52.182;5.398;2022-09-21T06:03:40;7.80;99.90
46652;DHT22;32377;52.182;5.398;2022-09-21T06:06:07;7.70;99.90
46652;DHT22;32377;52.182;5.398;2022-09-21T06:08:33;7.70;99.90
46652;DHT22;32377;52.182;5.398;2022-09-21T06:10:59;7.70;99.90
46652;DHT22;32377;52.182;5.398;2022-09-21T06:13:25;7.80;99.90
46652;DHT22;32377;52.182;5.398;2022-09-21T06:15:51;7.90;99.90
46652;DHT22;32377;52.182;5.398;2022-09-21T06:18:17;7.90;99.90
46652;DHT22;32377;52.182;5.398;2022-09-21T06:20:43;8.00;99.90
46652;DHT22;32377;52.182;5.398;2022-09-21T06:23:10;8.00;99.90
46652;DHT22;32377;52.182;5.398;2022-09-21T06:25:37;8.10;99.90
46652;DHT22;32377;52.182;5.398;2022-09-21T06:28:08;8.20;99.90
46652;DHT22;32377;52.182;5.398;2022-09-21T06:30:35;8.30;99.90
46652;DHT22;32377;52.182;5.398;2022-09-21T06:33:01;8.40;99.90
46652;DHT22;32377;52.182;5.398;2022-09-21T06:35:29;8.50;99.90
46652;DHT22;32377;52.182;5.398;2022-09-21T06:38:03;8.60;99.90
46652;DHT22;32377;52.182;5.398;2022-09-21T06:40:30;8.60;99.90
46652;DHT22;32377;52.182;5.398;2022-09-21T06:43:00;8.70;99.90
46652;DHT22;32377;52.182;5.398;2022-09-21T06:45:27;8.80;99.90
46652;DHT22;32377;52.182;5.398;2022-09-21T06:47:52;8.90;99.90
46652;DHT22;32377;52.182;5.398;2022-09-21T06:50:18;8.90;99.90
46652;DHT22;32377;52.182;5.398;2022-09-21T06:52:44;9.00;99.90
46652;DHT22;32377;52.182;5.398;2022-09-21T06:55:10;9.10;99.90
46652;DHT22;32377;52.182;5.398;2022-09-21T06:57:36;9.20;99.90
46652;DHT22;32377;52.182;5.398;2022-09-21T07:00:04;9.30;99.90
46652;DHT22;32377;52.182;5.398;2022-09-21T07:02:30;9.40;99.90
46652;DHT22;32377;52.182;5.398;2022-09-21T07:04:56;9.50;99.90
46652;DHT22;32377;52.182;5.398;2022-09-21T07:07:23;9.60;99.90
46652;DHT22;32377;52.182;5.398;2022-09-21T07:09:49;9.60;99.90
46652;DHT22;32377;52.182;5.398;2022-09-21T07:12:16;9.70;99.90
46652;DHT22;32377;52.182;5.398;2022-09-21T07:14:42;9.80;99.90
46652;DHT22;32377;52.182;5.398;2022-09-21T07:17:11;9.90;99.90
46652;DHT22;32377;52.182;5.398;2022-09-21T07:19:37;10.10;99.90
46652;DHT22;32377;52.182;5.398;2022-09-21T07:22:03;10.10;99.90
46652;DHT22;32377;52.182;5.398;2022-09-21T07:24:29;10.30;99.90
46652;DHT22;32377;52.182;5.398;2022-09-21T07:26:54;10.30;99.90
46652;DHT22;32377;52.182;5.398;2022-09-21T07:29:20;10.40;99.90
46652;DHT22;32377;52.182;5.398;2022-09-21T07:31:46;10.50;99.90
46652;DHT22;32377;52.182;5.398;2022-09-21T07:34:12;10.60;99.90
46652;DHT22;32377;52.182;5.398;2022-09-21T07:36:38;10.70;99.90
46652;DHT22;32377;52.182;5.398;2022-09-21T07:39:03;10.70;99.90
46652;DHT22;32377;52.182;5.398;2022-09-21T07:41:29;10.80;99.90
46652;DHT22;32377;52.182;5.398;2022-09-21T07:43:55;10.90;99.90
46652;DHT22;32377;52.182;5.398;2022-09-21T07:46:20;11.00;99.90
46652;DHT22;32377;52.182;5.398;2022-09-21T07:48:46;11.10;99.90
46652;DHT22;32377;52.182;5.398;2022-09-21T07:51:13;11.20;99.90
46652;DHT22;32377;52.182;5.398;2022-09-21T07:53:41;11.30;99.90
46652;DHT22;32377;52.182;5.398;2022-09-21T07:56:09;11.30;99.90
46652;DHT22;32377;52.182;5.398;2022-09-21T07:58:36;11.50;99.90
46652;DHT22;32377;52.182;5.398;2022-09-21T08:01:20;11.50;99.90
46652;DHT22;32377;52.182;5.398;2022-09-21T08:03:50;11.70;99.90
46652;DHT22;32377;52.182;5.398;2022-09-21T08:06:15;11.70;99.90
46652;DHT22;32377;52.182;5.398;2022-09-21T08:08:42;11.80;99.90
46652;DHT22;32377;52.182;5.398;2022-09-21T08:11:07;11.90;99.90
46652;DHT22;32377;52.182;5.398;2022-09-21T08:13:33;12.00;99.90
46652;DHT22;32377;52.182;5.398;2022-09-21T08:16:00;12.10;99.90
46652;DHT22;32377;52.182;5.398;2022-09-21T08:18:27;12.30;99.90
46652;DHT22;32377;52.182;5.398;2022-09-21T08:20:57;12.40;99.90
46652;DHT22;32377;52.182;5.398;2022-09-21T08:23:23;12.50;99.90
46652;DHT22;32377;52.182;5.398;2022-09-21T08:25:51;12.60;99.90
46652;DHT22;32377;52.182;5.398;2022-09-21T08:28:16;12.70;99.90
46652;DHT22;32377;52.182;5.398;2022-09-21T08:30:43;12.70;99.90
46652;DHT22;32377;52.182;5.398;2022-09-21T08:33:08;12.80;99.90
46652;DHT22;32377;52.182;5.398;2022-09-21T08:35:34;12.90;99.90
46652;DHT22;32377;52.182;5.398;2022-09-21T08:38:01;13.00;99.90
46652;DHT22;32377;52.182;5.398;2022-09-21T08:40:27;13.10;99.90
46652;DHT22;32377;52.182;5.398;2022-09-21T08:43:12;13.10;99.90
46652;DHT22;32377;52.182;5.398;2022-09-21T08:45:42;13.20;99.90
46652;DHT22;32377;52.182;5.398;2022-09-21T08:48:30;13.30;99.90
46652;DHT22;32377;52.182;5.398;2022-09-21T08:51:02;13.40;99.90
46652;DHT22;32377;52.182;5.398;2022-09-21T08:53:43;13.40;99.90
46652;DHT22;32377;52.182;5.398;2022-09-21T08:56:14;13.50;99.90
46652;DHT22;32377;52.182;5.398;2022-09-21T08:58:40;13.60;99.90
46652;DHT22;32377;52.182;5.398;2022-09-21T09:01:42;13.70;99.90
46652;DHT22;32377;52.182;5.398;2022-09-21T09:04:31;13.80;99.90
46652;DHT22;32377;52.182;5.398;2022-09-21T09:07:11;13.80;99.90
46652;DHT22;32377;52.182;5.398;2022-09-21T09:10:01;13.90;99.90
46652;DHT22;32377;52.182;5.398;2022-09-21T09:12:53;13.90;99.90
46652;DHT22;32377;52.182;5.398;2022-09-21T09:15:43;13.90;99.90
46652;DHT22;32377;52.182;5.398;2022-09-21T09:18:17;14.10;99.90
46652;DHT22;32377;52.182;5.398;2022-09-21T09:20:51;14.10;99.90
46652;DHT22;32377;52.182;5.398;2022-09-21T09:23:40;14.10;99.90
46652;DHT22;32377;52.182;5.398;2022-09-21T09:26:17;14.10;99.90
46652;DHT22;32377;52.182;5.398;2022-09-21T09:28:50;14.20;99.90
46652;DHT22;32377;52.182;5.398;2022-09-21T09:31:33;14.10;99.90
46652;DHT22;32377;52.182;5.398;2022-09-21T09:36:30;14.20;99.90
46652;DHT22;32377;52.182;5.398;2022-09-21T09:39:04;14.30;99.90
46652;DHT22;32377;52.182;5.398;2022-09-21T09:46:57;14.40;99.90
46652;DHT22;32377;52.182;5.398;2022-09-21T09:50:28;14.50;99.90
46652;DHT22;32377;52.182;5.398;2022-09-21T09:52:21;14.70;99.90
46652;DHT22;32377;52.182;5.398;2022-09-21T09:54:47;14.70;99.90
46652;DHT22;32377;52.182;5.398;2022-09-21T09:57:14;14.80;99.90
46652;DHT22;32377;52.182;5.398;2022-09-21T09:59:53;14.80;99.90
46652;DHT22;32377;52.182;5.398;2022-09-21T10:04:57;14.90;99.90
46652;DHT22;32377;52.182;5.398;2022-09-21T10:12:48;14.90;99.90
46652;DHT22;32377;52.182;5.398;2022-09-21T10:15:16;14.90;99.90
46652;DHT22;32377;52.182;5.398;2022-09-21T10:17:44;15.10;99.90
46652;DHT22;32377;52.182;5.398;2022-09-21T10:20:18;15.10;99.90
46652;DHT22;32377;52.182;5.398;2022-09-21T10:22:47;15.10;99.90
46652;DHT22;32377;52.182;5.398;2022-09-21T10:25:17;15.00;99.90
46652;DHT22;32377;52.182;5.398;2022-09-21T10:27:46;15.10;99.90
46652;DHT22;32377;52.182;5.398;2022-09-21T10:30:32;15.20;99.90
46652;DHT22;32377;52.182;5.398;2022-09-21T10:32:59;15.20;99.90
46652;DHT22;32377;52.182;5.398;2022-09-21T10:35:25;15.30;99.90
46652;DHT22;32377;52.182;5.398;2022-09-21T10:38:15;15.40;99.90
46652;DHT22;32377;52.182;5.398;2022-09-21T10:40:42;15.50;99.90
46652;DHT22;32377;52.182;5.398;2022-09-21T10:43:32;15.50;99.90
46652;DHT22;32377;52.182;5.398;2022-09-21T10:45:59;15.80;99.90
46652;DHT22;32377;52.182;5.398;2022-09-21T10:48:26;15.90;99.90
46652;DHT22;32377;52.182;5.398;2022-09-21T10:50:54;15.90;99.90
46652;DHT22;32377;52.182;5.398;2022-09-21T10:53:33;15.90;99.90
46652;DHT22;32377;52.182;5.398;2022-09-21T10:56:06;16.00;99.90
46652;DHT22;32377;52.182;5.398;2022-09-21T10:58:34;16.00;99.90
46652;DHT22;32377;52.182;5.398;2022-09-21T11:01:30;16.20;99.90
46652;DHT22;32377;52.182;5.398;2022-09-21T11:04:05;16.30;99.90
46652;DHT22;32377;52.182;5.398;2022-09-21T11:06:44;16.10;99.90
46652;DHT22;32377;52.182;5.398;2022-09-21T11:09:42;16.10;99.90
46652;DHT22;32377;52.182;5.398;2022-09-21T11:15:47;16.60;99.90
46652;DHT22;32377;52.182;5.398;2022-09-21T11:18:21;16.70;99.90
46652;DHT22;32377;52.182;5.398;2022-09-21T11:20:54;16.80;99.90
46652;DHT22;32377;52.182;5.398;2022-09-21T11:26:08;16.90;99.90
46652;DHT22;32377;52.182;5.398;2022-09-21T11:29:14;17.00;99.90
46652;DHT22;32377;52.182;5.398;2022-09-21T11:34:19;16.90;99.90
46652;DHT22;32377;52.182;5.398;2022-09-21T11:42:34;16.60;99.90
46652;DHT22;32377;52.182;5.398;2022-09-21T11:45:06;16.60;99.90
46652;DHT22;32377;52.182;5.398;2022-09-21T11:50:40;16.20;99.90
46652;DHT22;32377;52.182;5.398;2022-09-21T11:56:01;16.00;99.90
46652;DHT22;32377;52.182;5.398;2022-09-21T12:04:20;15.80;99.90
46652;DHT22;32377;52.182;5.398;2022-09-21T12:12:51;15.90;99.90
46652;DHT22;32377;52.182;5.398;2022-09-21T12:15:25;16.00;99.90
46652;DHT22;32377;52.182;5.398;2022-09-21T12:21:14;16.00;99.90
46652;DHT22;32377;52.182;5.398;2022-09-21T12:23:53;16.10;99.90
46652;DHT22;32377;52.182;5.398;2022-09-21T12:26:26;15.90;99.90
46652;DHT22;32377;52.182;5.398;2022-09-21T12:29:00;15.90;99.90
46652;DHT22;32377;52.182;5.398;2022-09-21T12:31:50;15.80;99.90
46652;DHT22;32377;52.182;5.398;2022-09-21T12:34:28;15.80;99.90
46652;DHT22;32377;52.182;5.398;2022-09-21T12:37:14;15.90;99.90
46652;DHT22;32377;52.182;5.398;2022-09-21T12:39:50;15.90;99.90
46652;DHT22;32377;52.182;5.398;2022-09-21T12:42:24;15.90;99.90
46652;DHT22;32377;52.182;5.398;2022-09-21T12:45:16;15.90;99.90
46652;DHT22;32377;52.182;5.398;2022-09-21T12:50:37;16.00;99.90
46652;DHT22;32377;52.182;5.398;2022-09-21T12:53:05;16.00;99.90
46652;DHT22;32377;52.182;5.398;2022-09-21T12:55:41;16.10;99.90
46652;DHT22;32377;52.182;5.398;2022-09-21T12:58:18;16.10;99.90
46652;DHT22;32377;52.182;5.398;2022-09-21T13:00:56;16.10;99.90
46652;DHT22;32377;52.182;5.398;2022-09-21T13:03:34;16.20;99.90
46652;DHT22;32377;52.182;5.398;2022-09-21T13:08:52;16.20;99.90
46652;DHT22;32377;52.182;5.398;2022-09-21T13:11:20;16.30;99.90
46652;DHT22;32377;52.182;5.398;2022-09-21T13:13:49;16.30;99.90
46652;DHT22;32377;52.182;5.398;2022-09-21T13:16:31;16.40;99.90
46652;DHT22;32377;52.182;5.398;2022-09-21T13:19:00;16.40;99.90
46652;DHT22;32377;52.182;5.398;2022-09-21T13:21:29;16.30;99.90
46652;DHT22;32377;52.182;5.398;2022-09-21T13:24:03;16.30;99.90
46652;DHT22;32377;52.182;5.398;2022-09-21T13:26:41;16.20;99.90
46652;DHT22;32377;52.182;5.398;2022-09-21T13:34:39;16.10;99.90
46652;DHT22;32377;52.182;5.398;2022-09-21T13:39:47;15.90;99.90
46652;DHT22;32377;52.182;5.398;2022-09-21T13:47:42;15.80;99.90
46652;DHT22;32377;52.182;5.398;2022-09-21T13:50:30;16.00;99.90
46652;DHT22;32377;52.182;5.398;2022-09-21T13:52:57;16.10;99.90
46652;DHT22;32377;52.182;5.398;2022-09-21T13:55:31;16.00;99.90
46652;DHT22;32377;52.182;5.398;2022-09-21T13:58:01;16.00;99.90
46652;DHT22;32377;52.182;5.398;2022-09-21T14:00:59;16.00;99.90
46652;DHT22;32377;52.182;5.398;2022-09-21T14:03:34;16.10;99.90
46652;DHT22;32377;52.182;5.398;2022-09-21T14:06:16;16.20;99.90
46652;DHT22;32377;52.182;5.398;2022-09-21T14:08:54;16.20;99.90
46652;DHT22;32377;52.182;5.398;2022-09-21T14:11:37;16.30;99.90
46652;DHT22;32377;52.182;5.398;2022-09-21T14:14:31;16.30;99.90
46652;DHT22;32377;52.182;5.398;2022-09-21T14:17:00;16.30;99.90
46652;DHT22;32377;52.182;5.398;2022-09-21T14:24:48;16.30;99.90
46652;DHT22;32377;52.182;5.398;2022-09-21T14:27:32;16.30;99.90
46652;DHT22;32377;52.182;5.398;2022-09-21T14:30:21;16.30;99.90
46652;DHT22;32377;52.182;5.398;2022-09-21T14:35:33;16.40;99.90
46652;DHT22;32377;52.182;5.398;2022-09-21T14:38:02;16.40;99.90
46652;DHT22;32377;52.182;5.398;2022-09-21T14:40:33;16.40;99.90
46652;DHT22;32377;52.182;5.398;2022-09-21T14:43:07;16.40;99.90
46652;DHT22;32377;52.182;5.398;2022-09-21T14:46:02;16.40;99.90
46652;DHT22;32377;52.182;5.398;2022-09-21T14:51:17;16.30;99.90
46652;DHT22;32377;52.182;5.398;2022-09-21T14:56:38;16.20;99.90
46652;DHT22;32377;52.182;5.398;2022-09-21T15:02:30;16.20;99.90
46652;DHT22;32377;52.182;5.398;2022-09-21T15:08:05;16.30;99.90
46652;DHT22;32377;52.182;5.398;2022-09-21T15:13:51;16.40;99.90
46652;DHT22;32377;52.182;5.398;2022-09-21T15:16:34;16.40;99.90
46652;DHT22;32377;52.182;5.398;2022-09-21T15:21:40;16.70;99.90
46652;DHT22;32377;52.182;5.398;2022-09-21T15:24:28;16.80;99.90
46652;DHT22;32377;52.182;5.398;2022-09-21T15:29:29;16.80;99.90
46652;DHT22;32377;52.182;5.398;2022-09-21T15:31:56;16.90;99.90
46652;DHT22;32377;52.182;5.398;2022-09-21T15:34:22;16.90;99.90
46652;DHT22;32377;52.182;5.398;2022-09-21T15:36:48;17.20;99.90
46652;DHT22;32377;52.182;5.398;2022-09-21T15:39:25;17.20;99.90
46652;DHT22;32377;52.182;5.398;2022-09-21T15:44:33;17.10;99.90
46652;DHT22;32377;52.182;5.398;2022-09-21T15:46:59;17.20;99.90
46652;DHT22;32377;52.182;5.398;2022-09-21T15:49:27;17.10;99.90
46652;DHT22;32377;52.182;5.398;2022-09-21T15:52:10;17.00;99.90
46652;DHT22;32377;52.182;5.398;2022-09-21T15:54:50;17.00;99.90
46652;DHT22;32377;52.182;5.398;2022-09-21T16:00:26;16.80;99.90
46652;DHT22;32377;52.182;5.398;2022-09-21T16:05:50;16.70;99.90
46652;DHT22;32377;52.182;5.398;2022-09-21T16:08:30;16.70;99.90
46652;DHT22;32377;52.182;5.398;2022-09-21T16:11:31;16.60;99.90
46652;DHT22;32377;52.182;5.398;2022-09-21T16:14:10;16.60;99.90
46652;DHT22;32377;52.182;5.398;2022-09-21T16:20:14;16.40;99.90
46652;DHT22;32377;52.182;5.398;2022-09-21T16:22:49;16.40;99.90
46652;DHT22;32377;52.182;5.398;2022-09-21T16:25:33;16.30;99.90
46652;DHT22;32377;52.182;5.398;2022-09-21T16:28:04;16.30;99.90
46652;DHT22;32377;52.182;5.398;2022-09-21T16:35:58;16.00;99.90
46652;DHT22;32377;52.182;5.398;2022-09-21T16:38:24;16.00;99.90
46652;DHT22;32377;52.182;5.398;2022-09-21T16:40:50;15.90;99.90
46652;DHT22;32377;52.182;5.398;2022-09-21T16:43:18;15.80;99.90
46652;DHT22;32377;52.182;5.398;2022-09-21T16:45:45;15.70;99.90
46652;DHT22;32377;52.182;5.398;2022-09-21T16:48:11;15.60;99.90
46652;DHT22;32377;52.182;5.398;2022-09-21T16:50:37;15.50;99.90
46652;DHT22;32377;52.182;5.398;2022-09-21T16:53:03;15.50;99.90
46652;DHT22;32377;52.182;5.398;2022-09-21T16:55:29;15.40;99.90
46652;DHT22;32377;52.182;5.398;2022-09-21T16:57:54;15.30;99.90
46652;DHT22;32377;52.182;5.398;2022-09-21T17:00:20;15.20;99.90
46652;DHT22;32377;52.182;5.398;2022-09-21T17:02:47;15.20;99.90
46652;DHT22;32377;52.182;5.398;2022-09-21T17:05:12;15.10;99.90
46652;DHT22;32377;52.182;5.398;2022-09-21T17:07:51;15.00;99.90
46652;DHT22;32377;52.182;5.398;2022-09-21T17:10:18;14.90;99.90
46652;DHT22;32377;52.182;5.398;2022-09-21T17:12:44;14.80;99.90
46652;DHT22;32377;52.182;5.398;2022-09-21T17:15:11;14.80;99.90
46652;DHT22;32377;52.182;5.398;2022-09-21T17:17:37;14.70;99.90
46652;DHT22;32377;52.182;5.398;2022-09-21T17:20:56;14.60;99.90
46652;DHT22;32377;52.182;5.398;2022-09-21T17:23:04;14.40;99.90
46652;DHT22;32377;52.182;5.398;2022-09-21T17:25:30;14.40;99.90
46652;DHT22;32377;52.182;5.398;2022-09-21T17:27:58;14.30;99.90
46652;DHT22;32377;52.182;5.398;2022-09-21T17:30:24;14.20;99.90
46652;DHT22;32377;52.182;5.398;2022-09-21T17:32:51;14.10;99.90
46652;DHT22;32377;52.182;5.398;2022-09-21T17:35:36;14.10;99.90
46652;DHT22;32377;52.182;5.398;2022-09-21T17:38:04;14.00;99.90
46652;DHT22;32377;52.182;5.398;2022-09-21T17:40:30;13.90;99.90
46652;DHT22;32377;52.182;5.398;2022-09-21T17:43:18;13.80;99.90
46652;DHT22;32377;52.182;5.398;2022-09-21T17:48:40;13.70;99.90
46652;DHT22;32377;52.182;5.398;2022-09-21T17:51:06;13.50;99.90
46652;DHT22;32377;52.182;5.398;2022-09-21T17:53:32;13.50;99.90
46652;DHT22;32377;52.182;5.398;2022-09-21T17:59:03;13.40;99.90
46652;DHT22;32377;52.182;5.398;2022-09-21T18:01:37;13.30;99.90
46652;DHT22;32377;52.182;5.398;2022-09-21T18:04:06;13.30;99.90
46652;DHT22;32377;52.182;5.398;2022-09-21T18:06:35;13.30;99.90
46652;DHT22;32377;52.182;5.398;2022-09-21T18:09:01;13.20;99.90
46652;DHT22;32377;52.182;5.398;2022-09-21T18:14:57;13.00;99.90
46652;DHT22;32377;52.182;5.398;2022-09-21T18:17:39;13.00;99.90
46652;DHT22;32377;52.182;5.398;2022-09-21T18:25:34;12.70;99.90
46652;DHT22;32377;52.182;5.398;2022-09-21T18:28:11;12.60;99.90
46652;DHT22;32377;52.182;5.398;2022-09-21T18:30:46;12.60;99.90
46652;DHT22;32377;52.182;5.398;2022-09-21T18:33:22;12.50;99.90
46652;DHT22;32377;52.182;5.398;2022-09-21T18:36:26;12.50;99.90
46652;DHT22;32377;52.182;5.398;2022-09-21T18:42:36;12.40;99.90
46652;DHT22;32377;52.182;5.398;2022-09-21T18:44:45;12.40;99.90
46652;DHT22;32377;52.182;5.398;2022-09-21T18:47:21;12.30;99.90
46652;DHT22;32377;52.182;5.398;2022-09-21T18:52:37;12.30;99.90
46652;DHT22;32377;52.182;5.398;2022-09-21T18:55:25;12.30;99.90
46652;DHT22;32377;52.182;5.398;2022-09-21T18:57:53;12.30;99.90
46652;DHT22;32377;52.182;5.398;2022-09-21T19:00:19;12.20;99.90
46652;DHT22;32377;52.182;5.398;2022-09-21T19:02:45;12.20;99.90
46652;DHT22;32377;52.182;5.398;2022-09-21T19:05:11;12.10;99.90
46652;DHT22;32377;52.182;5.398;2022-09-21T19:10:34;12.00;99.90